Time;durP1;ratioP1;P1;durP2;ratioP2;P2;SDS_P1;SDS_P2;PMS_P1;PMS_P2;Temp;Humidity;BMP_temperature;BMP_pressure;BME280_temperature;BME280_humidity;BME280_pressure;Samples;Min_cycle;Max_cycle;Signal;HPM_P1;HPM_P2
2022/12/19 00:00:34;;;;;;;8.73;5.93;;;15.80;36.20;;;;;;5063400;28;45291;-72
2022/12/19 00:03:01;;;;;;;9.18;6.10;;;15.90;36.40;;;;;;5064380;28;45470;-72
2022/12/19 00:05:28;;;;;;;8.38;6.35;;;16.00;36.00;;;;;;5063993;28;46416;-72
2022/12/19 00:07:54;;;;;;;8.05;6.63;;;16.00;36.50;;;;;;5064050;28;45286;-71
2022/12/19 00:10:21;;;;;;;7.75;6.10;;;16.00;35.90;;;;;;5064037;27;45219;-72
2022/12/19 00:12:48;;;;;;;8.40;6.18;;;16.10;35.90;;;;;;5064371;28;45256;-72
2022/12/19 00:15:15;;;;;;;9.68;6.60;;;16.10;36.00;;;;;;5063754;28;46716;-71
2022/12/19 00:17:43;;;;;;;6.70;5.63;;;16.00;35.90;;;;;;5064100;28;45270;-71
2022/12/19 00:20:11;;;;;;;7.85;5.88;;;16.00;36.00;;;;;;5064031;28;45341;-71
2022/12/19 00:22:38;;;;;;;9.50;6.22;;;16.00;36.00;;;;;;5063377;28;45236;-71
2022/12/19 00:25:05;;;;;;;7.28;5.88;;;16.00;36.10;;;;;;5064079;28;47479;-71
2022/12/19 00:27:34;;;;;;;7.57;5.78;;;16.00;36.10;;;;;;5063468;28;45164;-71
2022/12/19 00:30:02;;;;;;;7.25;5.95;;;16.00;36.10;;;;;;5063664;28;45286;-71
2022/12/19 00:32:29;;;;;;;8.07;5.65;;;16.00;36.20;;;;;;5063879;28;45266;-71
2022/12/19 00:34:57;;;;;;;9.65;5.90;;;15.90;36.20;;;;;;5063254;28;46666;-71
2022/12/19 00:37:24;;;;;;;7.20;5.55;;;15.90;36.20;;;;;;5063744;28;45282;-71
2022/12/19 00:39:51;;;;;;;7.70;5.50;;;15.90;36.30;;;;;;5063876;28;45396;-71
2022/12/19 00:42:17;;;;;;;7.05;5.72;;;15.90;36.30;;;;;;5063801;28;45436;-71
2022/12/19 00:44:44;;;;;;;7.13;5.95;;;15.80;36.30;;;;;;5063359;28;45487;-71
2022/12/19 00:47:11;;;;;;;8.48;6.07;;;15.80;36.40;;;;;;5063572;28;45248;-71
2022/12/19 00:49:38;;;;;;;7.50;6.15;;;15.80;36.40;;;;;;5060908;28;45228;-71
2022/12/19 00:52:06;;;;;;;8.18;5.60;;;15.80;36.50;;;;;;5063712;27;45562;-71
2022/12/19 00:54:33;;;;;;;8.70;5.72;;;15.70;36.40;;;;;;5063219;28;46431;-71
2022/12/19 00:57:00;;;;;;;8.63;6.30;;;15.70;36.50;;;;;;5063395;28;45334;-71
2022/12/19 00:59:27;;;;;;;8.13;5.85;;;15.70;36.60;;;;;;5063635;28;45270;-71
2022/12/19 01:01:54;;;;;;;7.60;5.30;;;15.70;36.60;;;;;;5063510;28;45344;-71
2022/12/19 01:04:20;;;;;;;8.68;6.00;;;15.60;36.70;;;;;;5062991;28;45447;-71
2022/12/19 01:06:48;;;;;;;7.97;5.95;;;15.60;36.70;;;;;;5062484;28;45454;-71
2022/12/19 01:09:16;;;;;;;8.60;5.53;;;15.60;37.40;;;;;;5063200;28;45345;-71
2022/12/19 01:14:27;;;;;;;7.93;5.88;;;15.50;36.80;;;;;;5066550;28;45861;-71
2022/12/19 01:16:54;;;;;;;9.65;5.45;;;15.50;36.90;;;;;;5066004;28;45314;-73
2022/12/19 01:19:21;;;;;;;7.80;5.45;;;15.40;36.90;;;;;;5066249;28;45223;-71
2022/12/19 01:21:48;;;;;;;8.15;5.50;;;15.40;37.00;;;;;;5066573;28;45242;-71
2022/12/19 01:24:16;;;;;;;7.60;5.15;;;15.40;37.00;;;;;;5066080;28;45198;-72
2022/12/19 01:26:43;;;;;;;7.45;5.28;;;15.40;37.10;;;;;;5065750;28;45167;-71
2022/12/19 01:29:10;;;;;;;7.55;5.60;;;15.50;37.00;;;;;;5066097;28;45367;-71
2022/12/19 01:31:37;;;;;;;5.65;4.82;;;15.60;37.50;;;;;;5066265;28;45345;-71
2022/12/19 01:34:04;;;;;;;6.95;5.47;;;15.60;36.70;;;;;;5065894;28;46708;-70
2022/12/19 01:36:30;;;;;;;7.00;5.30;;;15.70;36.60;;;;;;5065983;28;45194;-73
2022/12/19 01:38:57;;;;;;;7.50;5.47;;;15.80;36.60;;;;;;5066013;28;45233;-73
2022/12/19 01:41:26;;;;;;;6.97;5.72;;;15.80;36.50;;;;;;5066180;27;45228;-73
2022/12/19 01:43:57;;;;;;;6.50;5.30;;;15.90;36.40;;;;;;5065701;28;46719;-71
2022/12/19 01:46:26;;;;;;;6.82;5.13;;;15.90;36.30;;;;;;5065802;28;46406;-73
2022/12/19 01:48:53;;;;;;;7.25;5.43;;;16.00;36.40;;;;;;5066239;28;45318;-71
2022/12/19 01:51:21;;;;;;;6.38;5.25;;;16.00;36.30;;;;;;5066101;28;45189;-71
2022/12/19 01:53:49;;;;;;;7.85;5.95;;;16.00;36.30;;;;;;5065655;28;47294;-73
2022/12/19 01:56:16;;;;;;;7.47;5.03;;;16.00;36.90;;;;;;5064899;28;45289;-70
2022/12/19 01:58:45;;;;;;;6.72;5.50;;;16.00;36.40;;;;;;5065740;28;45356;-73
2022/12/19 02:01:12;;;;;;;7.50;5.38;;;16.00;36.40;;;;;;5066048;28;45188;-73
2022/12/19 02:03:39;;;;;;;6.95;5.80;;;16.00;36.40;;;;;;5065476;28;47611;-71
2022/12/19 02:06:07;;;;;;;7.43;5.20;;;15.90;36.40;;;;;;5065553;27;45285;-73
2022/12/19 02:08:34;;;;;;;7.47;5.22;;;15.90;36.40;;;;;;5065617;28;45257;-71
2022/12/19 02:11:00;;;;;;;8.23;5.35;;;15.90;36.50;;;;;;5065818;28;45240;-73
2022/12/19 02:13:27;;;;;;;6.38;5.30;;;15.90;36.50;;;;;;5065603;28;47427;-73
2022/12/19 02:15:59;;;;;;;7.60;5.32;;;15.90;36.60;;;;;;5065358;28;45324;-73
2022/12/19 02:18:31;;;;;;;7.35;5.10;;;15.90;36.70;;;;;;5065765;28;45307;-73
2022/12/19 02:21:23;;;;;;;6.97;4.93;;;15.80;36.60;;;;;;5065653;28;45448;-70
2022/12/19 02:24:15;;;;;;;6.53;4.50;;;15.80;36.70;;;;;;5064846;28;45283;-71
2022/12/19 02:27:09;;;;;;;8.23;4.68;;;15.80;37.40;;;;;;5065194;28;45253;-73
2022/12/19 02:30:03;;;;;;;6.80;5.40;;;15.80;36.80;;;;;;5057449;28;45227;-72
2022/12/19 02:32:33;;;;;;;6.40;4.78;;;15.70;36.90;;;;;;5065546;27;45170;-73
2022/12/19 02:35:05;;;;;;;6.72;4.93;;;15.70;36.90;;;;;;5065229;28;46710;-72
2022/12/19 02:37:34;;;;;;;5.82;5.07;;;15.70;37.00;;;;;;5065212;28;45232;-72
2022/12/19 02:40:02;;;;;;;7.90;4.55;;;15.60;37.00;;;;;;5065277;27;45303;-72
2022/12/19 02:42:30;;;;;;;6.53;5.18;;;15.60;37.00;;;;;;5065576;28;45462;-73
2022/12/19 02:44:57;;;;;;;6.43;4.45;;;15.60;37.20;;;;;;5064997;28;47339;-74
2022/12/19 02:47:24;;;;;;;5.70;4.72;;;15.60;37.20;;;;;;5065034;27;45986;-74
2022/12/19 02:49:52;;;;;;;6.63;5.00;;;15.50;37.20;;;;;;5065234;27;45309;-73
2022/12/19 02:52:43;;;;;;;6.75;4.82;;;15.50;37.20;;;;;;5065255;28;45439;-72
2022/12/19 02:55:11;;;;;;;7.05;4.95;;;15.50;37.30;;;;;;5064941;28;46990;-72
2022/12/19 02:57:41;;;;;;;7.65;5.25;;;15.40;37.30;;;;;;5065028;27;45293;-72
2022/12/19 03:00:09;;;;;;;6.00;4.70;;;15.40;37.40;;;;;;5064964;28;45258;-72
2022/12/19 03:02:38;;;;;;;5.28;4.20;;;15.50;37.30;;;;;;5065520;28;45461;-73
2022/12/19 03:05:11;;;;;;;6.45;5.07;;;15.60;37.30;;;;;;5064739;27;45255;-73
2022/12/19 03:07:42;;;;;;;7.68;5.00;;;15.60;37.10;;;;;;5062175;28;45277;-73
2022/12/19 03:10:12;;;;;;;6.40;5.30;;;15.70;37.00;;;;;;5064865;28;45219;-72
2022/12/19 03:12:40;;;;;;;6.30;4.72;;;15.80;36.90;;;;;;5065163;28;45415;-71
2022/12/19 03:15:08;;;;;;;6.30;5.47;;;15.90;36.90;;;;;;5064605;28;46680;-71
2022/12/19 03:17:35;;;;;;;5.85;4.95;;;16.00;36.80;;;;;;5064702;28;45158;-71
2022/12/19 03:20:04;;;;;;;5.95;4.85;;;16.00;36.70;;;;;;5064734;27;45243;-71
2022/12/19 03:22:32;;;;;;;6.80;4.75;;;16.10;37.20;;;;;;5065212;28;45379;-72
2022/12/19 03:24:59;;;;;;;6.18;5.07;;;16.10;36.70;;;;;;5064598;27;46553;-71
2022/12/19 03:27:27;;;;;;;6.15;4.80;;;16.10;36.70;;;;;;5064430;28;45312;-71
2022/12/19 03:29:56;;;;;;;5.55;4.50;;;16.10;36.70;;;;;;5063761;28;45332;-71
2022/12/19 03:32:23;;;;;;;5.82;4.30;;;16.10;36.70;;;;;;5064454;27;45121;-71
2022/12/19 03:34:51;;;;;;;6.38;4.53;;;16.10;36.70;;;;;;5063200;28;47352;-72
2022/12/19 03:37:20;;;;;;;6.10;4.40;;;16.10;36.80;;;;;;5064439;28;45368;-72
2022/12/19 03:39:54;;;;;;;6.60;4.60;;;16.10;36.80;;;;;;5064572;28;45259;-73
2022/12/19 03:45:06;;;;;;;7.10;4.55;;;16.10;36.90;;;;;;5061829;28;45301;-70
2022/12/19 03:47:34;;;;;;;6.00;4.65;;;16.00;36.90;;;;;;5064370;27;45225;-73
2022/12/19 03:50:01;;;;;;;5.55;4.18;;;16.00;36.90;;;;;;5064298;27;45365;-72
2022/12/19 03:52:29;;;;;;;5.00;3.70;;;16.00;37.00;;;;;;5064516;28;45297;-72
2022/12/19 03:55:01;;;;;;;6.25;4.32;;;16.00;37.00;;;;;;5064090;27;46418;-73
2022/12/19 03:57:29;;;;;;;5.47;4.43;;;16.00;37.00;;;;;;5064144;28;45439;-72
2022/12/19 03:59:58;;;;;;;5.95;4.10;;;16.00;37.00;;;;;;5064536;28;45235;-72
2022/12/19 04:02:25;;;;;;;5.45;4.60;;;16.00;37.10;;;;;;5064471;27;45535;-73
2022/12/19 04:04:53;;;;;;;6.45;4.03;;;15.90;37.10;;;;;;5063977;28;45300;-72
2022/12/19 04:07:20;;;;;;;5.72;4.40;;;15.90;37.20;;;;;;5063934;28;45285;-72
2022/12/19 04:09:47;;;;;;;6.55;4.35;;;15.90;37.20;;;;;;5064040;28;45324;-73
2022/12/19 04:12:16;;;;;;;5.80;4.28;;;15.90;37.30;;;;;;5064537;28;45312;-72
2022/12/19 04:14:43;;;;;;;5.18;4.50;;;15.80;37.30;;;;;;5064011;28;46847;-73
2022/12/19 04:17:13;;;;;;;6.90;4.47;;;15.80;37.40;;;;;;5063976;28;45287;-72
2022/12/19 04:19:43;;;;;;;4.78;4.15;;;15.80;38.10;;;;;;5064084;28;45237;-72
2022/12/19 04:22:13;;;;;;;6.35;4.97;;;15.70;37.40;;;;;;5064079;27;45280;-72
2022/12/19 04:24:41;;;;;;;5.60;4.25;;;15.70;37.50;;;;;;5063756;27;46389;-72
2022/12/19 04:27:08;;;;;;;6.18;4.47;;;15.70;37.50;;;;;;5062875;28;45285;-71
2022/12/19 04:29:36;;;;;;;4.85;4.07;;;15.70;37.60;;;;;;5063444;27;45300;-72
2022/12/19 04:32:04;;;;;;;5.32;4.28;;;15.60;37.60;;;;;;5064049;27;45345;-72
2022/12/19 04:34:31;;;;;;;6.40;4.57;;;15.60;37.70;;;;;;5063924;27;47550;-72
2022/12/19 04:36:57;;;;;;;5.13;3.95;;;15.60;37.70;;;;;;5063745;28;45311;-73
2022/12/19 04:39:24;;;;;;;4.90;4.22;;;15.60;37.80;;;;;;5063756;28;45399;-72
2022/12/19 04:41:51;;;;;;;5.45;4.20;;;15.50;37.80;;;;;;5063889;28;45417;-72
2022/12/19 04:44:18;;;;;;;4.97;4.15;;;15.50;37.80;;;;;;5063431;27;45418;-72
2022/12/19 04:46:46;;;;;;;6.72;4.15;;;15.50;37.90;;;;;;5066173;28;45190;-72
2022/12/19 04:49:14;;;;;;;5.07;4.00;;;15.50;37.90;;;;;;5066681;28;45303;-72
2022/12/19 04:51:40;;;;;;;5.00;4.10;;;15.60;37.80;;;;;;5066702;27;45319;-72
2022/12/19 04:54:07;;;;;;;5.03;4.03;;;15.70;37.70;;;;;;5066458;27;46918;-72
2022/12/19 04:56:34;;;;;;;4.70;3.55;;;15.80;37.50;;;;;;5066600;28;45192;-72
2022/12/19 04:59:01;;;;;;;3.80;3.40;;;15.80;37.50;;;;;;5066756;28;45309;-72
2022/12/19 05:01:28;;;;;;;4.50;3.40;;;15.90;37.40;;;;;;5066726;28;45276;-72
2022/12/19 05:03:58;;;;;;;4.75;3.95;;;16.00;37.90;;;;;;5066157;28;46655;-72
2022/12/19 05:06:25;;;;;;;4.57;3.67;;;16.10;37.80;;;;;;5066364;28;45217;-73
2022/12/19 05:08:52;;;;;;;5.70;4.25;;;16.10;37.10;;;;;;5066555;28;45277;-73
2022/12/19 05:11:18;;;;;;;5.00;3.92;;;16.20;37.10;;;;;;5065679;27;45253;-72
2022/12/19 05:13:45;;;;;;;3.90;3.50;;;16.20;37.10;;;;;;5066143;28;45499;-72
2022/12/19 05:16:13;;;;;;;5.20;4.15;;;16.20;37.10;;;;;;5066278;28;45168;-72
2022/12/19 05:18:40;;;;;;;6.22;4.45;;;16.20;37.10;;;;;;5066455;28;45205;-72
2022/12/19 05:21:09;;;;;;;4.28;3.80;;;16.20;37.10;;;;;;5066416;28;45410;-72
2022/12/19 05:23:36;;;;;;;5.32;3.75;;;16.20;37.20;;;;;;5066018;28;46625;-72
2022/12/19 05:26:04;;;;;;;5.72;4.05;;;16.20;37.20;;;;;;5065873;27;45274;-72
2022/12/19 05:28:30;;;;;;;4.35;3.95;;;16.10;37.20;;;;;;5066193;28;45185;-72
2022/12/19 05:31:03;;;;;;;5.82;4.40;;;16.10;37.30;;;;;;5066232;28;45568;-72
2022/12/19 05:33:30;;;;;;;5.05;3.83;;;16.10;37.30;;;;;;5065836;28;45568;-72
2022/12/19 05:35:57;;;;;;;6.32;4.55;;;16.10;37.40;;;;;;5065873;28;45264;-72
2022/12/19 05:38:25;;;;;;;5.93;4.00;;;16.10;37.40;;;;;;5066078;28;45308;-72
2022/12/19 05:40:52;;;;;;;4.57;4.00;;;16.10;37.50;;;;;;5066320;28;45461;-72
2022/12/19 05:43:19;;;;;;;5.10;4.30;;;16.00;37.40;;;;;;5065738;28;46381;-72
2022/12/19 05:45:46;;;;;;;5.07;4.18;;;16.00;37.50;;;;;;5065980;28;45189;-72
2022/12/19 05:48:13;;;;;;;4.70;3.60;;;16.00;37.60;;;;;;5065920;28;45320;-72
2022/12/19 05:50:40;;;;;;;4.38;3.85;;;16.00;37.60;;;;;;5066122;28;45269;-72
2022/12/19 05:53:06;;;;;;;4.90;4.07;;;16.00;37.70;;;;;;5065551;28;46399;-72
2022/12/19 05:55:35;;;;;;;5.38;4.25;;;15.90;37.70;;;;;;5065195;28;45180;-72
2022/12/19 05:58:02;;;;;;;4.72;3.83;;;15.90;37.70;;;;;;5063953;28;45286;-72
2022/12/19 06:00:29;;;;;;;5.07;3.92;;;15.90;37.80;;;;;;5063273;28;45331;-72
2022/12/19 06:02:55;;;;;;;4.65;4.10;;;15.90;37.80;;;;;;5065521;28;46535;-72
2022/12/19 06:05:22;;;;;;;5.22;3.92;;;15.80;37.80;;;;;;5065659;28;45233;-72
2022/12/19 06:07:49;;;;;;;3.95;3.53;;;15.80;37.90;;;;;;5065692;28;45201;-72
2022/12/19 06:10:16;;;;;;;5.60;4.03;;;15.80;37.90;;;;;;5065806;28;45410;-72
2022/12/19 06:12:44;;;;;;;4.07;3.72;;;15.80;38.00;;;;;;5065583;28;46800;-71
2022/12/19 06:15:11;;;;;;;4.15;3.75;;;15.70;38.00;;;;;;5065493;28;45352;-72
2022/12/19 06:17:38;;;;;;;4.20;3.58;;;15.70;38.00;;;;;;5065876;27;45286;-73
2022/12/19 06:20:06;;;;;;;5.03;4.20;;;15.70;38.10;;;;;;5065987;28;45312;-73
2022/12/19 06:22:34;;;;;;;4.30;3.80;;;15.70;38.20;;;;;;5066047;28;45271;-72
2022/12/19 06:25:01;;;;;;;5.30;3.38;;;15.60;38.10;;;;;;5065314;27;45300;-72
2022/12/19 06:27:28;;;;;;;4.93;3.88;;;15.60;38.20;;;;;;5065254;28;45269;-72
2022/12/19 06:29:56;;;;;;;4.15;3.72;;;15.60;38.30;;;;;;5065966;28;45302;-73
2022/12/19 06:32:23;;;;;;;4.32;3.60;;;15.60;38.30;;;;;;5065285;28;47330;-72
2022/12/19 06:34:50;;;;;;;4.03;3.42;;;15.50;38.30;;;;;;5065169;28;45295;-72
2022/12/19 06:37:16;;;;;;;5.47;4.05;;;15.60;38.30;;;;;;5065663;28;45403;-72
2022/12/19 06:39:43;;;;;;;4.25;3.58;;;15.70;38.20;;;;;;5064745;28;45192;-72
2022/12/19 06:42:24;;;;;;;5.45;3.88;;;15.80;38.10;;;;;;5065087;28;45489;-72
2022/12/19 06:44:51;;;;;;;5.60;4.18;;;15.80;37.90;;;;;;5064385;27;45433;-72
2022/12/19 06:47:20;;;;;;;4.13;3.67;;;15.90;38.40;;;;;;5065288;28;45235;-72
2022/12/19 06:49:47;;;;;;;4.05;3.38;;;16.00;37.70;;;;;;5065424;27;45275;-72
2022/12/19 06:52:14;;;;;;;5.40;4.07;;;16.10;37.70;;;;;;5065149;28;45308;-72
2022/12/19 06:54:41;;;;;;;4.82;3.92;;;16.20;37.50;;;;;;5062385;28;45339;-73
2022/12/19 06:57:08;;;;;;;4.05;3.65;;;16.20;37.40;;;;;;5065131;28;45252;-72
2022/12/19 06:59:35;;;;;;;5.38;4.13;;;16.30;37.40;;;;;;5065389;28;45172;-72
2022/12/19 07:02:03;;;;;;;5.47;4.18;;;16.30;37.40;;;;;;5065071;28;47332;-72
2022/12/19 07:04:32;;;;;;;6.07;3.85;;;16.30;37.60;;;;;;5064967;28;45301;-72
2022/12/19 07:06:59;;;;;;;4.97;4.30;;;16.30;37.50;;;;;;5065019;27;45215;-72
2022/12/19 07:09:26;;;;;;;5.45;4.38;;;16.30;37.50;;;;;;5064929;28;45525;-72
2022/12/19 07:11:53;;;;;;;4.80;4.25;;;16.30;37.50;;;;;;5064799;28;45751;-72
2022/12/19 07:14:20;;;;;;;5.22;4.50;;;16.30;37.60;;;;;;5064779;28;45305;-72
2022/12/19 07:16:47;;;;;;;4.88;4.28;;;16.20;37.50;;;;;;5064924;28;45167;-72
2022/12/19 07:19:14;;;;;;;4.85;4.30;;;16.20;37.60;;;;;;5065087;28;45229;-72
2022/12/19 07:21:42;;;;;;;5.22;4.55;;;16.20;37.70;;;;;;5064877;28;45405;-72
2022/12/19 07:24:09;;;;;;;5.75;4.85;;;16.20;37.70;;;;;;5064769;28;45300;-72
2022/12/19 07:26:36;;;;;;;5.65;3.78;;;16.20;37.70;;;;;;5064367;27;45301;-73
2022/12/19 07:29:03;;;;;;;5.20;3.83;;;16.20;37.80;;;;;;5064258;28;45313;-73
2022/12/19 07:31:30;;;;;;;4.55;4.05;;;16.20;37.80;;;;;;5064426;28;47332;-73
2022/12/19 07:33:57;;;;;;;4.88;3.83;;;16.10;37.80;;;;;;5064697;28;45228;-72
2022/12/19 07:36:24;;;;;;;4.65;4.00;;;16.10;37.90;;;;;;5064626;28;45281;-72
2022/12/19 07:38:52;;;;;;;5.88;3.80;;;16.10;37.90;;;;;;5065124;27;45362;-72
2022/12/19 07:41:19;;;;;;;5.00;4.30;;;16.10;38.00;;;;;;5064368;28;45228;-72
2022/12/19 07:43:46;;;;;;;5.45;4.70;;;16.10;38.00;;;;;;5064439;28;45292;-73
2022/12/19 07:46:13;;;;;;;4.95;4.18;;;16.00;38.10;;;;;;5064731;28;45213;-72
2022/12/19 07:48:40;;;;;;;5.97;4.07;;;16.00;38.10;;;;;;5064659;27;45501;-72
2022/12/19 07:51:07;;;;;;;6.00;4.30;;;16.00;38.10;;;;;;5064240;28;46719;-72
2022/12/19 07:53:34;;;;;;;5.55;4.57;;;15.90;38.10;;;;;;5064580;28;45348;-72
2022/12/19 07:56:02;;;;;;;5.35;4.38;;;15.90;38.20;;;;;;5064514;28;45183;-72
2022/12/19 07:58:30;;;;;;;7.97;4.70;;;15.90;38.20;;;;;;5064778;28;45170;-73
2022/12/19 08:00:57;;;;;;;5.35;4.40;;;15.90;38.30;;;;;;5064196;27;45385;-72
2022/12/19 08:03:23;;;;;;;5.30;4.30;;;15.80;38.30;;;;;;5064130;27;45357;-72
2022/12/19 08:05:50;;;;;;;5.15;4.65;;;15.80;38.30;;;;;;5074945;27;45401;-73
2022/12/19 08:08:17;;;;;;;5.40;4.80;;;15.80;38.40;;;;;;5044542;28;45178;-74
2022/12/19 08:10:44;;;;;;;5.30;4.28;;;15.80;38.40;;;;;;5042964;27;45630;-75
2022/12/19 08:13:12;;;;;;;5.78;4.38;;;15.70;38.40;;;;;;5043980;28;45544;-75
2022/12/19 08:15:39;;;;;;;5.63;4.95;;;15.70;38.40;;;;;;5044091;28;45222;-75
2022/12/19 08:18:06;;;;;;;5.00;4.50;;;15.70;38.50;;;;;;5044492;28;45250;-73
2022/12/19 08:20:33;;;;;;;6.72;5.05;;;15.70;38.60;;;;;;5043401;28;45737;-77
2022/12/19 08:23:00;;;;;;;7.93;4.53;;;15.70;38.60;;;;;;5043860;28;45305;-75
2022/12/19 08:25:27;;;;;;;6.35;5.18;;;15.60;38.60;;;;;;5057985;27;45351;-75
2022/12/19 08:27:54;;;;;;;5.63;5.03;;;15.70;38.60;;;;;;5064175;27;45282;-77
2022/12/19 08:30:22;;;;;;;7.05;4.93;;;15.80;38.50;;;;;;5063735;27;46687;-76
2022/12/19 08:32:49;;;;;;;5.88;4.53;;;15.80;38.30;;;;;;5063677;28;45428;-76
2022/12/19 08:35:16;;;;;;;4.93;4.28;;;15.90;38.20;;;;;;5063812;28;45377;-76
2022/12/19 08:37:43;;;;;;;6.22;4.95;;;16.00;38.10;;;;;;5064258;28;45324;-77
2022/12/19 08:40:11;;;;;;;5.55;4.80;;;16.10;38.00;;;;;;5063828;27;46774;-76
2022/12/19 08:42:38;;;;;;;5.00;4.05;;;16.10;37.90;;;;;;5063980;28;45187;-77
2022/12/19 08:45:06;;;;;;;5.55;4.57;;;16.20;37.90;;;;;;5063839;27;45347;-77
2022/12/19 08:47:35;;;;;;;5.35;4.88;;;16.20;37.90;;;;;;5063888;27;45543;-77
2022/12/19 08:50:02;;;;;;;6.95;5.18;;;16.20;37.90;;;;;;5060962;28;46170;-77
2022/12/19 08:52:29;;;;;;;5.95;4.97;;;16.20;37.90;;;;;;5063078;28;45229;-76
2022/12/19 08:54:55;;;;;;;5.03;4.53;;;16.20;37.90;;;;;;5063302;27;45388;-76
2022/12/19 08:57:22;;;;;;;5.68;4.30;;;16.20;37.90;;;;;;5063747;28;45676;-77
2022/12/19 08:59:49;;;;;;;5.72;5.07;;;16.20;38.00;;;;;;5063367;28;46656;-77
2022/12/19 09:02:16;;;;;;;6.07;4.90;;;16.20;38.00;;;;;;5063662;28;45260;-76
2022/12/19 09:04:45;;;;;;;5.25;4.75;;;16.20;38.10;;;;;;5063636;27;45245;-74
2022/12/19 09:07:12;;;;;;;5.93;4.93;;;16.20;38.10;;;;;;5063679;27;45559;-74
2022/12/19 09:09:39;;;;;;;7.75;5.00;;;16.20;38.10;;;;;;5063193;28;45478;-74
2022/12/19 09:12:06;;;;;;;5.55;4.65;;;16.20;38.20;;;;;;5063345;28;45197;-75
2022/12/19 09:14:33;;;;;;;9.10;5.25;;;16.20;38.20;;;;;;5063002;27;45150;-74
2022/12/19 09:17:00;;;;;;;7.53;4.78;;;16.20;38.30;;;;;;5063803;27;45497;-74
2022/12/19 09:19:27;;;;;;;7.07;5.15;;;16.10;38.30;;;;;;5060596;28;45544;-74
2022/12/19 09:21:56;;;;;;;6.65;4.88;;;16.10;38.40;;;;;;5063169;28;45332;-74
2022/12/19 09:24:23;;;;;;;5.65;5.03;;;16.10;38.40;;;;;;5063099;28;45258;-74
2022/12/19 09:26:51;;;;;;;6.82;5.07;;;16.10;38.50;;;;;;5063027;28;45337;-74
2022/12/19 09:29:18;;;;;;;6.43;5.00;;;16.10;38.60;;;;;;5063675;28;45685;-74
2022/12/19 09:31:45;;;;;;;6.07;4.90;;;16.00;38.60;;;;;;5061774;28;45170;-74
2022/12/19 09:34:12;;;;;;;5.47;4.57;;;16.00;38.70;;;;;;5066518;28;45214;-75
2022/12/19 09:36:39;;;;;;;7.00;5.45;;;16.00;38.70;;;;;;5066115;28;45401;-74
2022/12/19 09:39:07;;;;;;;6.45;4.55;;;16.00;38.80;;;;;;5065821;27;45458;-75
2022/12/19 09:41:56;;;;;;;6.07;4.78;;;15.90;38.80;;;;;;5064801;27;45396;-74
2022/12/19 09:44:30;;;;;;;5.28;4.25;;;15.90;38.80;;;;;;5063209;28;45182;-73
2022/12/19 09:46:58;;;;;;;5.32;4.50;;;15.90;38.90;;;;;;5065694;28;45182;-74
2022/12/19 09:49:28;;;;;;;5.90;4.70;;;15.90;38.90;;;;;;5065767;28;46592;-73
2022/12/19 09:51:57;;;;;;;5.72;4.82;;;15.90;39.00;;;;;;5065603;28;45325;-73
2022/12/19 09:54:27;;;;;;;6.30;5.10;;;15.90;39.00;;;;;;5063170;28;45190;-72
2022/12/19 09:56:58;;;;;;;6.15;4.78;;;15.90;39.10;;;;;;5066187;27;45500;-74
2022/12/19 09:59:27;;;;;;;6.47;4.88;;;15.90;39.10;;;;;;5065606;27;45498;-75
2022/12/19 10:01:56;;;;;;;6.80;5.13;;;15.90;39.10;;;;;;5065739;28;45305;-74
2022/12/19 10:04:24;;;;;;;6.25;5.35;;;15.90;39.20;;;;;;5065993;28;45193;-74
2022/12/19 10:06:51;;;;;;;6.50;4.78;;;15.90;39.20;;;;;;5049964;28;45216;-73
2022/12/19 10:09:20;;;;;;;6.93;5.00;;;15.90;39.20;;;;;;5058166;27;47250;-72
2022/12/19 10:11:55;;;;;;;6.22;5.20;;;15.90;39.20;;;;;;5065759;27;45166;-74
2022/12/19 10:14:37;;;;;;;7.53;4.80;;;15.90;39.10;;;;;;5065943;28;45243;-74
2022/12/19 10:17:08;;;;;;;6.05;5.00;;;16.00;39.60;;;;;;5065765;28;45309;-72
2022/12/19 10:19:41;;;;;;;5.88;4.40;;;16.10;38.90;;;;;;5061038;28;48001;-72
2022/12/19 10:22:13;;;;;;;7.68;5.00;;;16.20;38.70;;;;;;5065791;28;45127;-74
2022/12/19 10:24:53;;;;;;;4.93;4.35;;;16.30;38.60;;;;;;5065815;27;45251;-74
2022/12/19 10:27:26;;;;;;;6.97;5.05;;;16.40;38.50;;;;;;5065262;27;45551;-74
2022/12/19 10:30:00;;;;;;;6.80;4.93;;;16.40;38.40;;;;;;5065313;28;45208;-74
2022/12/19 10:32:29;;;;;;;5.07;4.45;;;16.50;38.40;;;;;;5065034;28;45275;-74
2022/12/19 10:34:55;;;;;;;5.22;4.40;;;16.50;38.90;;;;;;5065229;28;45229;-71
2022/12/19 10:37:24;;;;;;;5.60;4.47;;;16.60;38.30;;;;;;5065652;28;45470;-74
2022/12/19 10:39:55;;;;;;;7.50;4.90;;;16.60;38.20;;;;;;5058322;28;45474;-74
2022/12/19 10:42:30;;;;;;;6.75;4.65;;;16.60;38.20;;;;;;5044907;28;45363;-75
2022/12/19 10:44:57;;;;;;;7.97;5.03;;;16.60;38.30;;;;;;5045114;28;45282;-75
2022/12/19 10:47:24;;;;;;;5.82;4.80;;;16.60;38.30;;;;;;5045440;28;45539;-75
2022/12/19 10:49:51;;;;;;;5.25;4.40;;;16.60;38.30;;;;;;5042481;28;46688;-75
2022/12/19 10:52:40;;;;;;;6.00;4.80;;;16.70;38.40;;;;;;5044821;28;45228;-75
2022/12/19 10:55:20;;;;;;;5.70;4.82;;;16.70;38.40;;;;;;5044875;27;45243;-74
2022/12/19 10:57:48;;;;;;;5.35;4.38;;;16.70;38.40;;;;;;5045172;27;45183;-75
2022/12/19 11:00:16;;;;;;;5.55;4.53;;;16.70;38.40;;;;;;5044914;28;47012;-75
2022/12/19 11:02:44;;;;;;;5.60;4.30;;;16.70;38.40;;;;;;5044879;28;45305;-75
2022/12/19 11:05:23;;;;;;;5.57;4.93;;;16.60;38.60;;;;;;5045091;28;45271;-75
2022/12/19 11:08:00;;;;;;;5.50;4.60;;;16.60;38.60;;;;;;5045159;28;45391;-75
2022/12/19 11:10:38;;;;;;;5.43;4.80;;;16.60;38.60;;;;;;5044555;28;45255;-75
2022/12/19 11:13:19;;;;;;;6.20;4.55;;;16.60;38.60;;;;;;5064247;27;45387;-75
2022/12/19 11:15:49;;;;;;;6.03;5.07;;;16.60;38.70;;;;;;5062365;27;45382;-75
2022/12/19 11:18:16;;;;;;;5.43;4.70;;;16.60;38.70;;;;;;5086084;27;45541;-75
2022/12/19 11:20:56;;;;;;;6.90;4.95;;;16.60;38.70;;;;;;5171348;27;46384;-74
2022/12/19 11:23:23;;;;;;;5.97;4.85;;;16.60;38.80;;;;;;5156546;27;45420;-74
2022/12/19 11:25:53;;;;;;;5.35;4.65;;;16.60;38.80;;;;;;5063910;28;45447;-73
2022/12/19 11:28:24;;;;;;;7.43;4.68;;;16.60;38.90;;;;;;5064459;28;45504;-74
2022/12/19 11:30:59;;;;;;;6.82;4.68;;;16.60;38.90;;;;;;5064534;28;46786;-75
2022/12/19 11:33:25;;;;;;;6.35;4.57;;;16.60;39.00;;;;;;5065219;28;45325;-74
2022/12/19 11:35:53;;;;;;;5.40;4.82;;;16.60;39.00;;;;;;5064755;27;45350;-74
2022/12/19 11:38:28;;;;;;;6.82;5.05;;;16.50;39.10;;;;;;5137461;27;45367;-75
2022/12/19 11:40:57;;;;;;;5.85;4.53;;;16.50;39.20;;;;;;5170713;27;45384;-74
2022/12/19 11:43:27;;;;;;;6.22;4.72;;;16.50;39.30;;;;;;5171132;27;45305;-74
2022/12/19 11:45:58;;;;;;;5.32;4.18;;;16.40;39.30;;;;;;5170786;27;45201;-75
2022/12/19 11:48:31;;;;;;;5.80;4.63;;;16.40;39.40;;;;;;5171408;27;45315;-75
2022/12/19 11:51:01;;;;;;;5.63;4.50;;;16.40;39.50;;;;;;5168112;27;45300;-75
2022/12/19 11:53:29;;;;;;;5.57;4.47;;;16.40;39.50;;;;;;5170626;27;45138;-74
2022/12/19 11:55:58;;;;;;;5.20;4.25;;;16.40;39.60;;;;;;5169737;27;45328;-74
2022/12/19 11:58:28;;;;;;;6.85;4.70;;;16.40;39.60;;;;;;5171042;27;45376;-75
2022/12/19 12:01:00;;;;;;;6.20;4.93;;;16.30;39.60;;;;;;5170267;27;46666;-75
2022/12/19 12:03:44;;;;;;;5.63;4.75;;;16.30;39.70;;;;;;5170487;27;45209;-75
2022/12/19 12:06:12;;;;;;;6.20;4.82;;;16.30;39.80;;;;;;5170840;27;45292;-75
2022/12/19 12:08:50;;;;;;;5.93;4.47;;;16.30;39.80;;;;;;5171173;27;45178;-75
2022/12/19 12:11:25;;;;;;;6.07;4.55;;;16.30;39.80;;;;;;5170389;27;46675;-74
2022/12/19 12:14:16;;;;;;;6.88;4.50;;;16.30;39.80;;;;;;5170232;27;45323;-75
2022/12/19 12:16:56;;;;;;;6.78;4.32;;;16.30;39.80;;;;;;5138466;27;45316;-75
2022/12/19 12:19:34;;;;;;;6.10;4.18;;;16.30;39.80;;;;;;5067718;27;45360;-75
2022/12/19 12:22:08;;;;;;;5.43;4.22;;;16.30;39.80;;;;;;5074426;27;45616;-75
2022/12/19 12:24:41;;;;;;;5.53;4.57;;;16.20;39.90;;;;;;5063958;28;45267;-75
2022/12/19 12:27:16;;;;;;;6.20;4.50;;;16.20;40.00;;;;;;5076715;28;45494;-75
2022/12/19 12:29:47;;;;;;;4.55;4.05;;;16.20;40.10;;;;;;5084702;27;45483;-75
2022/12/19 12:32:21;;;;;;;5.25;4.40;;;16.30;40.00;;;;;;5083946;27;46447;-75
2022/12/19 12:34:55;;;;;;;5.88;4.57;;;16.30;39.90;;;;;;5084438;28;45243;-75
2022/12/19 12:37:33;;;;;;;4.85;4.35;;;16.40;39.90;;;;;;5084152;27;45198;-75
2022/12/19 12:40:15;;;;;;;6.07;4.35;;;16.50;39.80;;;;;;5084195;27;45402;-75
2022/12/19 12:42:47;;;;;;;5.63;4.47;;;16.50;39.70;;;;;;5081704;27;45311;-75
2022/12/19 12:45:19;;;;;;;4.50;4.07;;;16.60;39.70;;;;;;5083948;27;45446;-76
2022/12/19 12:47:47;;;;;;;5.00;4.20;;;16.60;39.60;;;;;;5084181;27;45296;-75
2022/12/19 12:50:16;;;;;;;5.63;4.45;;;16.70;39.60;;;;;;5084567;27;45326;-76
2022/12/19 12:52:44;;;;;;;4.95;4.00;;;16.70;39.60;;;;;;5083759;28;46321;-76
2022/12/19 12:55:14;;;;;;;4.97;4.50;;;16.70;39.60;;;;;;5083785;27;45202;-75
2022/12/19 12:57:41;;;;;;;4.38;3.97;;;16.70;39.70;;;;;;5068515;27;45595;-76
2022/12/19 13:00:16;;;;;;;5.07;4.55;;;16.70;39.70;;;;;;5062856;28;45238;-76
2022/12/19 13:02:44;;;;;;;4.80;4.32;;;16.70;39.70;;;;;;5063507;28;45411;-76